createdAt,value
2023-11-05T00:02:51.900Z,11.50
2023-11-05T00:06:53.036Z,10.90
2023-11-05T00:10:54.188Z,10.80
2023-11-05T00:14:55.220Z,10.30
2023-11-05T00:18:56.284Z,11.20
2023-11-05T00:22:57.324Z,10.50
2023-11-05T00:26:58.513Z,10.70
2023-11-05T00:30:59.530Z,10.60
2023-11-05T00:35:01.118Z,10.00
2023-11-05T00:39:02.896Z,11.00
2023-11-05T00:43:06.952Z,10.90
2023-11-05T00:47:08.177Z,10.50
2023-11-05T00:51:09.276Z,10.90
2023-11-05T00:55:10.446Z,10.90
2023-11-05T00:59:11.441Z,10.90
2023-11-05T01:03:13.612Z,10.90
2023-11-05T01:07:14.752Z,9.90
2023-11-05T01:11:16.008Z,10.30
2023-11-05T01:15:17.607Z,10.70
2023-11-05T01:19:18.944Z,10.40
2023-11-05T01:23:20.861Z,9.80
2023-11-05T01:27:22.055Z,10.20
2023-11-05T01:31:23.808Z,10.30
2023-11-05T01:35:24.897Z,10.70
2023-11-05T01:39:26.558Z,10.30
2023-11-05T01:43:27.598Z,10.50
2023-11-05T01:47:28.881Z,10.20
2023-11-05T01:51:30.292Z,10.30
2023-11-05T01:55:32.995Z,10.10
2023-11-05T01:59:34.652Z,9.80
2023-11-05T02:03:41.405Z,9.90
2023-11-05T02:07:42.400Z,9.90
2023-11-05T02:11:43.646Z,9.60
2023-11-05T02:15:45.563Z,9.30
2023-11-05T02:19:46.910Z,9.80
2023-11-05T02:23:48.742Z,9.80
2023-11-05T02:27:51.555Z,10.50
2023-11-05T02:31:52.977Z,10.00
2023-11-05T02:35:54.152Z,9.90
2023-11-05T02:39:55.286Z,9.70
2023-11-05T02:43:56.316Z,9.80
2023-11-05T02:47:57.554Z,10.00
2023-11-05T02:51:58.747Z,9.70
2023-11-05T02:55:59.753Z,9.90
2023-11-05T03:00:01.352Z,9.70
2023-11-05T03:04:02.816Z,9.70
2023-11-05T03:08:04.517Z,9.60
2023-11-05T03:12:06.590Z,9.40
2023-11-05T03:16:12.543Z,9.80
2023-11-05T03:20:13.718Z,9.50
2023-11-05T03:24:14.753Z,10.00
2023-11-05T03:28:15.806Z,9.60
2023-11-05T03:32:16.835Z,9.50
2023-11-05T03:36:17.912Z,9.90
2023-11-05T03:40:19.825Z,9.90
2023-11-05T03:44:20.986Z,10.20
2023-11-05T03:48:22.260Z,9.60
2023-11-05T03:52:23.308Z,10.00
2023-11-05T03:56:24.435Z,9.90
2023-11-05T04:00:25.467Z,9.80
2023-11-05T04:04:28.169Z,9.50
2023-11-05T04:08:29.144Z,10.10
2023-11-05T04:12:30.302Z,9.90
2023-11-05T04:16:31.553Z,9.70
2023-11-05T04:20:32.803Z,10.20
2023-11-05T04:24:33.825Z,9.70
2023-11-05T04:28:35.231Z,9.90
2023-11-05T04:32:36.799Z,10.40
2023-11-05T04:36:40.998Z,10.10
2023-11-05T04:40:42.304Z,10.40
2023-11-05T04:44:43.462Z,9.80
2023-11-05T04:48:44.808Z,10.40
2023-11-05T04:52:45.978Z,10.30
2023-11-05T04:56:47.000Z,10.10
2023-11-05T05:00:48.230Z,9.80
2023-11-05T05:04:49.622Z,9.70
2023-11-05T05:08:50.818Z,9.40
2023-11-05T05:12:52.541Z,9.50
2023-11-05T05:16:56.998Z,9.40
2023-11-05T05:20:59.449Z,9.40
2023-11-05T05:25:00.627Z,9.90
2023-11-05T05:29:03.518Z,9.80
2023-11-05T05:33:04.870Z,10.00
2023-11-05T05:37:06.216Z,10.50
2023-11-05T05:41:07.502Z,9.90
2023-11-05T05:45:09.272Z,10.20
2023-11-05T05:49:10.296Z,10.30
2023-11-05T05:53:11.768Z,9.90
2023-11-05T05:57:12.884Z,10.20
2023-11-05T06:01:14.157Z,10.20
2023-11-05T06:05:15.430Z,10.00
2023-11-05T06:09:18.522Z,10.20
2023-11-05T06:13:22.877Z,10.30
2023-11-05T06:17:23.873Z,10.60
2023-11-05T06:21:24.949Z,10.60
2023-11-05T06:25:26.036Z,10.30
2023-11-05T06:29:27.050Z,11.20
2023-11-05T06:33:30.181Z,11.10
2023-11-05T06:37:31.446Z,11.40
2023-11-05T06:41:32.409Z,11.50
2023-11-05T06:45:33.596Z,10.70
2023-11-05T06:49:34.979Z,10.90
2023-11-05T06:53:36.079Z,10.90
2023-11-05T06:57:37.512Z,10.80
2023-11-05T07:01:38.737Z,11.10
2023-11-05T07:05:40.272Z,10.90
2023-11-05T07:09:41.281Z,11.30
2023-11-05T07:13:42.309Z,11.60
2023-11-05T07:17:43.484Z,11.70
2023-11-05T07:21:45.752Z,11.70
2023-11-05T07:25:46.756Z,11.60
2023-11-05T07:29:47.759Z,11.30
2023-11-05T07:33:48.823Z,11.40
2023-11-05T07:37:50.518Z,11.60
2023-11-05T07:41:51.709Z,10.70
2023-11-05T07:45:52.738Z,11.20
2023-11-05T07:49:53.914Z,11.80
2023-11-05T07:53:55.069Z,12.30
2023-11-05T07:57:56.210Z,12.20
2023-11-05T08:01:58.546Z,11.90
2023-11-05T08:05:59.915Z,11.30
2023-11-05T08:10:01.025Z,11.50
2023-11-05T08:14:02.258Z,11.60
2023-11-05T08:18:03.331Z,11.80
2023-11-05T08:22:04.858Z,11.80
2023-11-05T08:26:06.262Z,11.70
2023-11-05T08:30:10.242Z,12.20
2023-11-05T08:34:11.258Z,12.20
2023-11-05T08:38:12.667Z,11.80
2023-11-05T08:42:13.740Z,11.70
2023-11-05T08:46:14.886Z,11.30
2023-11-05T08:50:16.141Z,11.60
2023-11-05T08:54:17.134Z,10.80
2023-11-05T08:58:18.222Z,11.10
2023-11-05T09:02:19.400Z,11.30
2023-11-05T09:06:21.195Z,11.40
2023-11-05T09:10:25.210Z,11.20
2023-11-05T09:14:27.454Z,11.00
2023-11-05T09:18:29.408Z,10.80
2023-11-05T09:22:30.458Z,10.80
2023-11-05T09:26:33.230Z,11.00
2023-11-05T09:30:35.213Z,10.20
2023-11-05T09:34:37.407Z,11.10
2023-11-05T09:38:39.120Z,11.20
2023-11-05T09:43:01.122Z,11.00
2023-11-05T09:47:02.777Z,11.40
2023-11-05T09:51:04.214Z,11.20
2023-11-05T09:55:06.115Z,11.30
2023-11-05T09:59:07.310Z,11.70
2023-11-05T10:03:14.324Z,11.60
2023-11-05T10:07:15.830Z,11.50
2023-11-05T10:11:18.520Z,11.60
2023-11-05T10:15:19.767Z,11.30
2023-11-05T10:19:22.485Z,12.00
2023-11-05T10:23:24.599Z,11.80
2023-11-05T10:27:31.321Z,12.10
2023-11-05T10:31:33.808Z,12.20
2023-11-05T10:35:36.362Z,12.40
2023-11-05T10:39:37.629Z,13.20
2023-11-05T10:43:39.559Z,13.50
2023-11-05T10:47:41.248Z,13.10
2023-11-05T10:51:43.240Z,13.90
2023-11-05T10:55:44.399Z,13.40
2023-11-05T10:59:45.378Z,13.60
2023-11-05T11:03:46.805Z,13.00
2023-11-05T11:07:47.942Z,13.50
2023-11-05T11:11:49.590Z,13.70
2023-11-05T11:15:54.917Z,13.60
2023-11-05T11:19:56.257Z,14.40
2023-11-05T11:24:17.746Z,14.40
2023-11-05T11:28:21.669Z,13.50
2023-11-05T11:32:22.775Z,13.10
2023-11-05T11:36:24.267Z,13.70
2023-11-05T11:40:25.500Z,13.80
2023-11-05T11:44:27.163Z,13.00
2023-11-05T11:48:28.438Z,12.80
2023-11-05T11:52:31.498Z,13.50
2023-11-05T11:56:33.106Z,13.00
2023-11-05T12:00:34.124Z,13.10
2023-11-05T12:04:35.896Z,12.80
2023-11-05T12:08:39.863Z,12.50
2023-11-05T12:12:45.515Z,13.00
2023-11-05T12:16:49.953Z,13.00
2023-11-05T12:20:50.234Z,12.70
2023-11-05T12:24:51.296Z,12.70
2023-11-05T12:28:54.798Z,12.40
2023-11-05T12:32:56.254Z,12.80
2023-11-05T12:36:57.884Z,11.70
2023-11-05T12:40:59.588Z,11.60
2023-11-05T12:45:02.086Z,12.20
2023-11-05T12:49:03.602Z,12.20
2023-11-05T12:53:04.748Z,12.30
2023-11-05T12:57:07.287Z,12.20
2023-11-05T13:01:10.984Z,13.40
2023-11-05T13:05:12.898Z,13.10
2023-11-05T13:09:17.344Z,13.70
2023-11-05T13:13:19.492Z,12.10
2023-11-05T13:17:20.787Z,12.10
2023-11-05T13:21:21.811Z,12.30
2023-11-05T13:25:23.491Z,12.90
2023-11-05T13:29:25.340Z,12.50
2023-11-05T13:33:27.265Z,11.70
2023-11-05T13:37:28.501Z,13.00
2023-11-05T13:41:29.721Z,12.30
2023-11-05T13:45:30.732Z,12.80
2023-11-05T13:49:31.804Z,12.50
2023-11-05T13:53:33.051Z,12.60
2023-11-05T13:57:34.429Z,12.10
2023-11-05T14:01:35.667Z,11.80
2023-11-05T14:05:37.207Z,12.10
2023-11-05T14:09:38.428Z,12.10
2023-11-05T14:13:39.606Z,12.20
2023-11-05T14:17:41.627Z,11.60
2023-11-05T14:21:44.195Z,11.30
2023-11-05T14:25:45.451Z,12.20
2023-11-05T14:29:46.743Z,11.90
2023-11-05T14:33:47.789Z,12.10
2023-11-05T14:37:49.024Z,11.90
2023-11-05T14:41:50.696Z,11.50
2023-11-05T14:45:52.085Z,11.90
2023-11-05T14:49:53.122Z,11.50
2023-11-05T14:53:54.157Z,11.00
2023-11-05T14:57:55.179Z,11.50
2023-11-05T15:01:56.556Z,10.50
2023-11-05T15:05:57.904Z,11.10
2023-11-05T15:09:59.053Z,11.30
2023-11-05T15:14:00.591Z,11.10
2023-11-05T15:18:03.247Z,11.90
2023-11-05T15:22:06.490Z,11.50
2023-11-05T15:26:07.709Z,11.30
2023-11-05T15:30:09.685Z,11.30
2023-11-05T15:34:12.815Z,10.90
2023-11-05T15:38:13.811Z,10.40
2023-11-05T15:42:15.049Z,10.50
2023-11-05T15:46:16.141Z,10.60
2023-11-05T15:50:19.367Z,10.50
2023-11-05T15:54:20.595Z,10.40
2023-11-05T15:58:21.752Z,10.70
2023-11-05T16:02:22.826Z,10.90
2023-11-05T16:06:24.764Z,10.50
2023-11-05T16:10:26.661Z,11.00
2023-11-05T16:14:29.592Z,10.40
2023-11-05T16:18:31.049Z,10.70
2023-11-05T16:22:32.569Z,11.00
2023-11-05T16:26:34.121Z,11.10
2023-11-05T16:30:35.733Z,10.40
2023-11-05T16:34:39.656Z,11.00
2023-11-05T16:38:40.795Z,10.60
2023-11-05T16:42:41.828Z,11.00
2023-11-05T16:46:43.119Z,10.70
2023-11-05T16:50:45.084Z,10.70
2023-11-05T16:54:48.016Z,10.30
2023-11-05T16:58:49.229Z,10.90
2023-11-05T17:02:50.547Z,11.10
2023-11-05T17:06:51.767Z,10.40
2023-11-05T17:10:53.005Z,10.20
2023-11-05T17:14:54.969Z,10.20
2023-11-05T17:18:57.824Z,10.00
2023-11-05T17:23:00.526Z,9.80
2023-11-05T17:27:01.827Z,10.40
2023-11-05T17:31:03.183Z,10.00
2023-11-05T17:35:06.025Z,10.30
2023-11-05T17:39:08.928Z,9.90
2023-11-05T17:43:10.014Z,9.90
2023-11-05T17:47:11.064Z,9.90
2023-11-05T17:51:12.351Z,10.50
2023-11-05T17:55:13.540Z,10.00
2023-11-05T17:59:14.549Z,10.60
2023-11-05T18:03:15.931Z,10.40
2023-11-05T18:07:17.937Z,10.40
2023-11-05T18:11:20.174Z,10.30
2023-11-05T18:15:21.414Z,10.90
2023-11-05T18:19:22.559Z,10.20
2023-11-05T18:23:23.816Z,10.90
2023-11-05T18:27:25.076Z,10.60
2023-11-05T18:31:26.167Z,10.60
2023-11-05T18:35:27.983Z,10.70
2023-11-05T18:39:29.024Z,10.10
2023-11-05T18:43:30.031Z,10.60
2023-11-05T18:47:31.109Z,10.40
2023-11-05T18:51:32.080Z,9.90
2023-11-05T18:55:33.164Z,10.50
2023-11-05T18:59:36.085Z,11.00
2023-11-05T19:03:37.266Z,10.60
2023-11-05T19:07:39.607Z,10.80
2023-11-05T19:11:42.496Z,10.50
2023-11-05T19:15:43.520Z,10.90
2023-11-05T19:19:44.707Z,10.70
2023-11-05T19:23:45.781Z,10.90
2023-11-05T19:27:46.798Z,10.40
2023-11-05T19:31:48.777Z,10.80
2023-11-05T19:35:49.882Z,10.40
2023-11-05T19:39:51.060Z,10.60
2023-11-05T19:43:52.075Z,10.80
2023-11-05T19:47:53.437Z,10.80
2023-11-05T19:51:54.522Z,11.00
2023-11-05T19:55:57.127Z,11.00
2023-11-05T19:59:58.887Z,11.10
2023-11-05T20:04:01.774Z,10.40
2023-11-05T20:08:03.024Z,10.70
2023-11-05T20:12:04.644Z,10.90
2023-11-05T20:16:06.306Z,11.60
2023-11-05T20:20:08.453Z,10.90
2023-11-05T20:24:09.809Z,11.50
2023-11-05T20:28:11.406Z,11.00
2023-11-05T20:32:12.731Z,11.50
2023-11-05T20:36:13.827Z,11.60
2023-11-05T20:40:15.213Z,11.90
2023-11-05T20:44:16.550Z,11.20
2023-11-05T20:48:18.284Z,11.90
2023-11-05T20:52:19.411Z,11.20
2023-11-05T20:56:20.539Z,11.50
2023-11-05T21:00:23.566Z,11.70
2023-11-05T21:04:24.816Z,11.30
2023-11-05T21:08:25.925Z,11.60
2023-11-05T21:12:27.112Z,12.00
2023-11-05T21:16:28.858Z,11.80
2023-11-05T21:20:30.308Z,11.70
2023-11-05T21:24:31.393Z,12.50
2023-11-05T21:28:32.552Z,11.90
2023-11-05T21:32:33.682Z,11.90
2023-11-05T21:36:34.724Z,11.80
2023-11-05T21:40:35.775Z,11.30
2023-11-05T21:44:36.785Z,12.00
2023-11-05T21:48:38.139Z,12.30
2023-11-05T21:52:39.364Z,11.30
2023-11-05T21:56:40.392Z,12.00
2023-11-05T22:00:41.551Z,12.10
2023-11-05T22:04:42.815Z,12.10
2023-11-05T22:08:44.055Z,11.10
2023-11-05T22:12:45.302Z,10.50
2023-11-05T22:16:47.483Z,11.20
2023-11-05T22:20:49.306Z,10.90
2023-11-05T22:24:53.875Z,11.00
2023-11-05T22:28:55.035Z,11.40
2023-11-05T22:32:57.194Z,10.70
2023-11-05T22:37:00.437Z,10.60
2023-11-05T22:41:01.482Z,11.00
2023-11-05T22:45:02.819Z,11.40
2023-11-05T22:49:12.638Z,11.00
2023-11-05T22:53:07.511Z,11.60
2023-11-05T22:57:09.748Z,10.90
2023-11-05T23:01:12.827Z,10.50
2023-11-05T23:05:14.242Z,10.80
2023-11-05T23:09:16.585Z,11.50
2023-11-05T23:13:19.042Z,11.00
2023-11-05T23:17:20.132Z,11.40
2023-11-05T23:21:22.149Z,10.90
2023-11-05T23:25:29.388Z,10.60
2023-11-05T23:29:26.119Z,10.90
2023-11-05T23:33:27.171Z,11.10
2023-11-05T23:37:28.191Z,11.20
2023-11-05T23:41:29.226Z,11.70
2023-11-05T23:45:30.386Z,10.90
2023-11-05T23:49:31.552Z,11.10
2023-11-05T23:53:32.587Z,11.40
2023-11-05T23:57:33.613Z,11.90
